Time;durP1;ratioP1;P1;durP2;ratioP2;P2;SDS_P1;SDS_P2;PMS_P1;PMS_P2;Temp;Humidity;BMP_temperature;BMP_pressure;BME280_temperature;BME280_humidity;BME280_pressure;Samples;Min_cycle;Max_cycle;Signal;HPM_P1;HPM_P2
2021/05/29 00:01:22;;;;;;;4.30;3.50;;;;;;;11.52;100.00;101725.19;4975048;28;20234;-76
2021/05/29 00:03:52;;;;;;;6.50;3.60;;;;;;;11.56;100.00;101739.94;4973859;28;20191;-76
2021/05/29 00:06:18;;;;;;;5.07;3.40;;;;;;;11.33;100.00;101747.47;4956272;28;20231;-76
2021/05/29 00:08:44;;;;;;;5.73;3.50;;;;;;;11.04;100.00;101747.84;4974161;28;20207;-75
2021/05/29 00:11:12;;;;;;;4.30;3.50;;;;;;;11.17;100.00;101751.88;4957486;29;20222;-75
2021/05/29 00:13:43;;;;;;;4.20;3.53;;;;;;;11.40;100.00;101745.41;4933924;29;20194;-75
2021/05/29 00:16:09;;;;;;;5.27;3.60;;;;;;;11.16;100.00;101755.66;4940472;29;20238;-76
2021/05/29 00:18:37;;;;;;;7.03;4.03;;;;;;;11.09;100.00;101747.94;4941835;29;20194;-75
2021/05/29 00:21:08;;;;;;;5.73;4.00;;;;;;;11.11;100.00;101745.78;4941577;29;20226;-75
2021/05/29 00:23:38;;;;;;;5.40;3.60;;;;;;;11.03;100.00;101743.50;4959459;29;20633;-76
2021/05/29 00:26:11;;;;;;;5.73;3.27;;;;;;;11.45;100.00;101743.59;4974033;28;20231;-76
2021/05/29 00:28:39;;;;;;;4.70;3.50;;;;;;;11.39;100.00;101744.59;4960139;29;20187;-76
2021/05/29 00:31:09;;;;;;;5.27;3.60;;;;;;;11.21;100.00;101735.88;4942071;29;20298;-76
2021/05/29 00:33:39;;;;;;;5.90;3.70;;;;;;;11.05;100.00;101735.91;4941912;29;20254;-76
2021/05/29 00:36:05;;;;;;;4.00;3.17;;;;;;;11.11;100.00;101738.44;4957185;28;20301;-76
2021/05/29 00:38:38;;;;;;;5.13;3.60;;;;;;;11.42;100.00;101732.38;4959031;28;20175;-76
2021/05/29 00:41:07;;;;;;;5.97;3.50;;;;;;;11.32;100.00;101729.50;4958598;29;20225;-76
2021/05/29 00:43:36;;;;;;;5.47;3.70;;;;;;;11.37;100.00;101730.41;4942336;29;20187;-77
2021/05/29 00:46:03;;;;;;;6.00;3.90;;;;;;;11.03;100.00;101728.00;4959403;28;20230;-76
2021/05/29 00:48:31;;;;;;;4.13;3.73;;;;;;;11.24;100.00;101733.47;4929456;29;20194;-76
2021/05/29 00:50:59;;;;;;;5.93;3.53;;;;;;;11.16;100.00;101728.47;4959425;29;20222;-76
2021/05/29 00:53:29;;;;;;;6.13;3.40;;;;;;;11.03;100.00;101728.00;4928249;29;20183;-76
2021/05/29 00:55:55;;;;;;;5.07;3.83;;;;;;;11.06;100.00;101724.78;4959358;28;20230;-76
2021/05/29 00:58:21;;;;;;;4.37;3.17;;;;;;;11.25;100.00;101728.88;4959790;29;20199;-76
2021/05/29 01:00:51;;;;;;;5.80;3.90;;;;;;;11.12;100.00;101731.09;4944486;28;20219;-77
2021/05/29 01:03:19;;;;;;;5.50;3.63;;;;;;;10.83;100.00;101732.28;4959677;29;20183;-76
2021/05/29 01:05:50;;;;;;;4.70;4.03;;;;;;;10.82;100.00;101725.19;4958323;29;20716;-76
2021/05/29 01:08:18;;;;;;;3.97;3.37;;;;;;;10.66;100.00;101720.59;4942872;29;20195;-76
2021/05/29 01:10:49;;;;;;;5.23;3.73;;;;;;;10.90;100.00;101727.53;4940662;29;20278;-76
2021/05/29 01:13:22;;;;;;;5.27;3.83;;;;;;;10.97;100.00;101730.88;4925373;29;20291;-77
2021/05/29 01:15:55;;;;;;;4.20;3.67;;;;;;;11.04;100.00;101726.09;4940116;28;20223;-76
2021/05/29 01:18:23;;;;;;;5.90;4.00;;;;;;;10.90;100.00;101728.34;4940584;29;20202;-76
2021/05/29 01:20:51;;;;;;;4.37;3.70;;;;;;;10.92;100.00;101725.38;4956293;28;20710;-76
2021/05/29 01:23:20;;;;;;;6.90;3.67;;;;;;;11.08;100.00;101729.94;4955635;29;20183;-76
2021/05/29 01:25:47;;;;;;;6.63;3.43;;;;;;;11.12;100.00;101731.09;4955206;28;20314;-76
2021/05/29 01:28:14;;;;;;;5.27;3.47;;;;;;;11.05;100.00;101735.91;4940585;29;20183;-76
2021/05/29 01:30:57;;;;;;;4.33;3.53;;;;;;;10.94;100.00;101745.78;4956143;29;20234;-75
2021/05/29 01:33:32;;;;;;;6.10;3.63;;;;;;;11.10;100.00;101738.69;4956610;28;20246;-75
2021/05/29 01:36:05;;;;;;;5.90;3.93;;;;;;;11.04;100.00;101734.25;4939886;29;20218;-75
2021/05/29 01:38:33;;;;;;;6.43;3.73;;;;;;;11.00;100.00;101730.38;4972807;28;20191;-76
2021/05/29 01:41:10;;;;;;;6.97;4.10;;;;;;;11.02;100.00;101730.94;4957020;29;20625;-75
2021/05/29 01:43:41;;;;;;;4.83;4.20;;;;;;;11.04;100.00;101745.13;4955510;29;20241;-76
2021/05/29 01:46:18;;;;;;;5.13;3.47;;;;;;;11.22;100.00;101749.22;4940134;28;20254;-76
2021/05/29 01:48:49;;;;;;;5.63;3.83;;;;;;;11.29;100.00;101749.03;4939198;29;20740;-75
2021/05/29 01:51:20;;;;;;;5.83;3.70;;;;;;;10.91;100.00;101754.44;4937946;29;20218;-75
2021/05/29 01:53:51;;;;;;;6.50;3.87;;;;;;;10.89;100.00;101747.59;4942831;29;20190;-76
2021/05/29 01:56:19;;;;;;;7.07;4.03;;;;;;;10.87;100.00;101749.75;4924303;29;20231;-76
2021/05/29 01:58:45;;;;;;;5.33;4.13;;;;;;;10.81;100.00;101757.00;4940843;29;20182;-76
2021/05/29 02:01:14;;;;;;;8.13;4.30;;;;;;;10.84;100.00;101744.78;4955949;28;20223;-76
2021/05/29 02:03:45;;;;;;;6.53;4.70;;;;;;;10.87;100.00;101749.75;4925272;29;20193;-75
2021/05/29 02:06:14;;;;;;;6.47;4.60;;;;;;;10.75;100.00;101755.28;4973848;28;20705;-75
2021/05/29 02:08:42;;;;;;;8.60;4.87;;;;;;;10.74;100.00;101756.31;4958780;29;20817;-74
2021/05/29 02:11:08;;;;;;;6.60;4.83;;;;;;;10.51;100.00;101750.22;4955636;29;20222;-75
2021/05/29 02:13:39;;;;;;;9.30;4.87;;;;;;;10.73;100.00;101753.84;4948512;29;20191;-75
2021/05/29 02:16:05;;;;;;;7.70;4.83;;;;;;;10.87;100.00;101749.75;4955527;28;20739;-75
2021/05/29 02:18:33;;;;;;;7.30;4.60;;;;;;;10.61;100.00;101763.97;4954493;29;20229;-75
2021/05/29 02:21:11;;;;;;;6.20;4.93;;;;;;;10.60;100.00;101764.22;4938419;29;20278;-75
2021/05/29 02:23:45;;;;;;;6.60;4.87;;;;;;;10.62;100.00;101765.63;4937845;29;20179;-75
2021/05/29 02:26:12;;;;;;;6.90;5.27;;;;;;;10.70;100.00;101764.41;4938232;29;20658;-76
2021/05/29 02:28:41;;;;;;;9.87;5.10;;;;;;;10.69;100.00;101760.84;4954391;29;20179;-74
2021/05/29 02:31:07;;;;;;;7.07;5.30;;;;;;;10.76;100.00;101765.06;4938092;29;20226;-76
2021/05/29 02:33:38;;;;;;;7.60;5.00;;;;;;;10.57;100.00;101757.41;4953737;29;20187;-77
2021/05/29 02:36:06;;;;;;;7.67;5.70;;;;;;;10.61;100.00;101755.84;4952534;28;20541;-75
2021/05/29 02:38:34;;;;;;;7.73;5.67;;;;;;;10.77;100.00;101765.91;4938849;29;20202;-76
2021/05/29 02:41:00;;;;;;;9.17;5.27;;;;;;;10.85;100.00;101773.63;4937294;29;20248;-75
2021/05/29 02:43:33;;;;;;;6.00;5.40;;;;;;;10.96;100.00;101767.28;4945205;29;20195;-75
2021/05/29 02:46:00;;;;;;;7.30;5.07;;;;;;;10.94;100.00;101772.97;4954565;28;20232;-76
2021/05/29 02:48:26;;;;;;;8.17;4.80;;;;;;;11.09;100.00;101764.25;4957005;29;20207;-77
2021/05/29 02:50:51;;;;;;;7.47;5.13;;;;;;;10.98;100.00;101770.59;4957204;29;20226;-76
2021/05/29 02:53:17;;;;;;;7.43;5.07;;;;;;;10.91;100.00;101762.59;4937679;29;20195;-76
2021/05/29 02:55:46;;;;;;;8.97;5.80;;;;;;;10.83;100.00;101771.16;4938140;29;20257;-76
2021/05/29 02:58:12;;;;;;;7.67;5.60;;;;;;;10.72;100.00;101763.09;4923495;29;20218;-74
2021/05/29 03:00:42;;;;;;;6.17;5.47;;;;;;;10.62;100.00;101772.94;4942841;29;20234;-74
2021/05/29 03:03:13;;;;;;;7.63;5.83;;;;;;;10.76;100.00;101775.09;4942351;29;20191;-75
2021/05/29 03:05:40;;;;;;;8.90;5.97;;;;;;;10.64;100.00;101771.66;4942969;29;20230;-75
2021/05/29 03:08:10;;;;;;;13.30;6.67;;;;;;;10.64;100.00;101771.66;4976896;28;20175;-75
2021/05/29 03:10:36;;;;;;;8.27;6.20;;;;;;;10.73;100.00;101774.78;4962492;28;20230;-75
2021/05/29 03:13:04;;;;;;;8.30;5.80;;;;;;;10.79;100.00;101785.50;4960729;29;20197;-74
2021/05/29 03:15:32;;;;;;;8.97;6.20;;;;;;;10.46;100.00;101773.75;4975685;28;20234;-74
2021/05/29 03:17:59;;;;;;;7.50;5.67;;;;;;;10.62;100.00;101784.66;4946202;29;20342;-75
2021/05/29 03:20:27;;;;;;;8.70;6.13;;;;;;;10.59;100.00;101782.41;4944719;28;20198;-75
2021/05/29 03:22:58;;;;;;;8.73;6.03;;;;;;;10.68;100.00;101783.69;4960461;28;20191;-75
2021/05/29 03:25:24;;;;;;;8.97;6.37;;;;;;;10.71;100.00;101780.44;4959183;28;20245;-74
2021/05/29 03:27:50;;;;;;;10.83;6.27;;;;;;;10.84;100.00;101783.69;4944234;28;20641;-76
2021/05/29 03:30:20;;;;;;;9.07;6.10;;;;;;;10.74;100.00;101767.19;4960150;28;20659;-75
2021/05/29 03:32:46;;;;;;;9.63;6.10;;;;;;;10.87;100.00;101777.75;4961875;29;20194;-74
2021/05/29 03:35:12;;;;;;;8.63;6.40;;;;;;;10.69;100.00;101770.91;4961078;28;20211;-75
2021/05/29 03:37:40;;;;;;;9.17;6.00;;;;;;;10.75;100.00;101773.47;4960384;29;20305;-75
2021/05/29 03:40:09;;;;;;;10.27;6.03;;;;;;;10.93;100.00;101771.34;4958781;28;20246;-75
2021/05/29 03:42:41;;;;;;;8.27;5.73;;;;;;;10.44;100.00;101776.72;4934313;29;20638;-75
2021/05/29 03:45:13;;;;;;;7.80;5.73;;;;;;;10.55;100.00;101770.41;4942974;28;20211;-75
2021/05/29 03:47:40;;;;;;;11.83;6.10;;;;;;;10.60;100.00;101772.38;4946464;29;20242;-75
2021/05/29 03:50:08;;;;;;;9.93;5.87;;;;;;;10.61;100.00;101772.13;4930691;29;20183;-75
2021/05/29 03:52:36;;;;;;;7.10;6.00;;;;;;;10.85;100.00;101769.00;4929609;29;20250;-76
2021/05/29 03:55:03;;;;;;;11.10;6.83;;;;;;;10.58;100.00;101772.59;4946413;29;20214;-74
2021/05/29 03:57:29;;;;;;;9.27;6.93;;;;;;;10.49;100.00;101774.09;4944541;28;20246;-75
2021/05/29 03:59:55;;;;;;;9.47;6.93;;;;;;;10.66;100.00;101780.38;4961385;29;20751;-75
2021/05/29 04:02:21;;;;;;;8.43;6.13;;;;;;;10.61;100.00;101783.00;4943776;29;20230;-76
2021/05/29 04:04:46;;;;;;;9.17;6.47;;;;;;;10.32;100.00;101780.56;4944409;28;20257;-75
2021/05/29 04:07:14;;;;;;;7.77;6.10;;;;;;;10.41;100.00;101792.66;4961724;28;20268;-74
2021/05/29 04:09:43;;;;;;;7.60;5.80;;;;;;;10.41;100.00;101793.50;4944714;29;20188;-75
2021/05/29 04:12:13;;;;;;;9.80;5.87;;;;;;;10.31;100.00;101791.66;4958573;28;20285;-76
2021/05/29 04:14:42;;;;;;;8.47;5.80;;;;;;;10.45;100.00;101783.78;4973841;28;20194;-76
2021/05/29 04:17:12;;;;;;;9.80;5.83;;;;;;;10.37;100.00;101791.50;4958446;28;20724;-75
2021/05/29 04:19:38;;;;;;;7.70;6.03;;;;;;;10.37;100.00;101786.09;4934582;29;20188;-75
2021/05/29 04:22:03;;;;;;;7.60;5.30;;;;;;;10.60;100.00;101775.91;4954646;29;20705;-75
2021/05/29 04:24:31;;;;;;;7.80;5.33;;;;;;;10.36;100.00;101797.19;4924837;29;20184;-75
2021/05/29 04:26:59;;;;;;;7.80;5.83;;;;;;;10.62;100.00;101790.09;4939673;29;20238;-74
2021/05/29 04:29:25;;;;;;;7.77;5.50;;;;;;;10.70;100.00;101803.28;4924140;29;20199;-76
2021/05/29 04:31:55;;;;;;;7.17;5.40;;;;;;;10.73;100.00;101786.47;4938880;28;20224;-74
2021/05/29 04:34:26;;;;;;;8.20;5.90;;;;;;;10.61;100.00;101796.59;4926623;29;20199;-74
2021/05/29 04:36:51;;;;;;;7.53;5.57;;;;;;;10.53;100.00;101802.44;4940019;29;20231;-75
2021/05/29 04:39:23;;;;;;;9.00;5.57;;;;;;;10.36;100.00;101799.91;4935951;29;20203;-75
2021/05/29 04:41:49;;;;;;;7.80;5.40;;;;;;;10.39;100.00;101806.50;4959349;28;20218;-75
2021/05/29 04:44:14;;;;;;;6.33;5.20;;;;;;;10.48;100.00;101805.03;4930045;29;20198;-74
2021/05/29 04:46:50;;;;;;;6.80;5.17;;;;;;;10.48;100.00;101802.31;4941596;29;20219;-76
2021/05/29 04:49:18;;;;;;;7.57;5.27;;;;;;;10.24;100.00;101799.13;4956217;28;20187;-76
2021/05/29 04:51:47;;;;;;;9.23;5.20;;;;;;;10.37;100.00;101803.19;4954205;29;20289;-75
2021/05/29 04:54:12;;;;;;;8.10;5.20;;;;;;;10.40;100.00;101802.72;4962926;29;20231;-76
2021/05/29 04:56:38;;;;;;;8.57;5.37;;;;;;;10.57;100.00;101809.00;4947467;29;20234;-76
2021/05/29 04:59:06;;;;;;;8.43;5.40;;;;;;;10.59;100.00;101804.16;4961923;29;20194;-76
2021/05/29 05:01:35;;;;;;;7.83;5.50;;;;;;;10.56;100.00;101796.47;4962125;28;20279;-76
2021/05/29 05:04:03;;;;;;;7.27;5.60;;;;;;;10.80;100.00;101817.03;4963512;28;20206;-75
2021/05/29 05:06:31;;;;;;;9.23;6.03;;;;;;;10.94;100.00;101810.22;4962191;28;20251;-77
2021/05/29 05:08:57;;;;;;;7.33;5.30;;;;;;;10.88;100.00;101812.03;4946986;29;20251;-76
2021/05/29 05:11:26;;;;;;;7.13;5.47;;;;;;;11.01;100.00;101810.88;4945631;29;20614;-75
2021/05/29 05:13:54;;;;;;;8.20;5.70;;;;;;;11.03;100.00;101808.75;4945757;29;20179;-77
2021/05/29 05:16:22;;;;;;;6.90;5.17;;;;;;;10.87;100.00;101815.78;4961985;28;20237;-76
2021/05/29 05:18:50;;;;;;;6.50;5.00;;;;;;;10.72;100.00;101812.00;4944589;29;20202;-75
2021/05/29 05:21:23;;;;;;;6.77;5.47;;;;;;;10.63;100.00;101816.19;4943974;29;20231;-75
2021/05/29 05:23:50;;;;;;;6.60;5.17;;;;;;;10.39;100.00;101809.22;4942489;29;20258;-76
2021/05/29 05:26:17;;;;;;;7.10;5.23;;;;;;;10.61;100.00;101812.88;4943231;29;20710;-76
2021/05/29 05:28:43;;;;;;;8.90;5.00;;;;;;;10.69;100.00;101822.53;4944206;29;20227;-76
2021/05/29 05:31:12;;;;;;;6.43;5.23;;;;;;;10.59;100.00;101817.75;4942790;29;20223;-76
2021/05/29 05:33:42;;;;;;;6.50;5.00;;;;;;;10.74;100.00;101815.28;4944069;29;20216;-76
2021/05/29 05:36:09;;;;;;;7.60;4.97;;;;;;;10.60;100.00;101824.00;4925602;29;20228;-76
2021/05/29 05:38:40;;;;;;;7.80;5.03;;;;;;;10.63;100.00;101823.50;4959248;29;20203;-76
2021/05/29 05:41:12;;;;;;;5.93;4.67;;;;;;;10.58;100.00;101826.94;4972888;28;20258;-77
2021/05/29 05:43:37;;;;;;;7.37;5.47;;;;;;;10.35;100.00;101828.13;4954152;29;20183;-76
2021/05/29 05:46:03;;;;;;;7.83;4.87;;;;;;;10.32;100.00;101829.44;4950758;29;20716;-76
2021/05/29 05:48:34;;;;;;;6.70;4.93;;;;;;;10.56;100.00;101834.53;4963564;29;20299;-75
2021/05/29 05:51:02;;;;;;;8.60;5.23;;;;;;;10.59;100.00;101834.03;4962071;29;20233;-77
2021/05/29 05:53:30;;;;;;;6.53;4.50;;;;;;;10.86;100.00;101822.31;4962889;29;20202;-76
2021/05/29 05:56:04;;;;;;;8.87;5.07;;;;;;;10.72;100.00;101828.31;4962868;28;20586;-76
2021/05/29 05:58:31;;;;;;;6.67;5.07;;;;;;;10.63;100.00;101824.34;4959278;29;20200;-76
2021/05/29 06:00:57;;;;;;;7.77;4.93;;;;;;;10.78;100.00;101828.13;4944708;29;20223;-76
2021/05/29 06:03:23;;;;;;;6.70;4.83;;;;;;;10.77;100.00;101840.09;4944884;29;20191;-75
2021/05/29 06:05:49;;;;;;;7.67;5.33;;;;;;;10.95;100.00;101842.59;4960950;28;20226;-76
2021/05/29 06:08:18;;;;;;;8.93;5.07;;;;;;;10.98;100.00;101846.72;4960954;29;20187;-76
2021/05/29 06:10:47;;;;;;;6.37;5.13;;;;;;;10.54;100.00;101846.72;4944482;29;20642;-75
2021/05/29 06:13:31;;;;;;;8.57;4.77;;;;;;;10.70;100.00;101840.50;4960412;29;20197;-74
2021/05/29 06:21:20;;;;;;;6.37;5.13;;;;;;;10.53;100.00;101859.47;4960121;28;20226;-77
2021/05/29 06:23:48;;;;;;;6.33;4.77;;;;;;;10.74;100.00;101866.13;4945205;29;20217;-77
2021/05/29 06:26:16;;;;;;;6.33;4.30;;;;;;;10.80;100.00;101864.06;4944823;29;20227;-77
2021/05/29 06:28:42;;;;;;;7.60;4.70;;;;;;;11.14;100.00;101869.28;4927504;29;20186;-76
2021/05/29 06:31:10;;;;;;;6.20;4.27;;;;;;;11.20;100.00;101860.13;4959909;28;20219;-76
2021/05/29 06:33:36;;;;;;;5.37;4.50;;;;;;;10.97;100.00;101864.91;4942217;29;20624;-76
2021/05/29 06:36:02;;;;;;;8.37;5.33;;;;;;;11.02;100.00;101866.88;4957562;28;20227;-75
2021/05/29 06:38:28;;;;;;;7.10;5.07;;;;;;;10.94;100.00;101864.59;4941830;29;20183;-76
2021/05/29 06:40:56;;;;;;;6.77;5.83;;;;;;;10.88;100.00;101876.44;4960332;28;20219;-77
2021/05/29 06:43:23;;;;;;;6.27;5.10;;;;;;;10.77;100.00;101874.59;4942368;29;20198;-76
2021/05/29 06:45:52;;;;;;;6.50;4.90;;;;;;;10.68;100.00;101869.78;4941675;29;20242;-78
2021/05/29 06:48:21;;;;;;;7.33;4.73;;;;;;;10.96;100.00;101863.25;4953398;29;20191;-76
2021/05/29 06:50:54;;;;;;;4.90;4.40;;;;;;;11.01;100.00;101876.94;4932558;29;20259;-76
2021/05/29 06:53:28;;;;;;;9.07;5.30;;;;;;;11.17;100.00;101876.97;4936796;29;20568;-76
2021/05/29 06:58:47;;;;;;;8.23;4.70;;;;;;;11.21;100.00;101874.59;4963954;28;20202;-77
2021/05/29 07:01:12;;;;;;;6.33;4.57;;;;;;;10.93;100.00;101865.63;4957005;28;20226;-76
2021/05/29 07:03:38;;;;;;;6.23;4.07;;;;;;;11.09;100.00;101875.72;4940620;29;20190;-76
2021/05/29 07:06:04;;;;;;;6.77;4.40;;;;;;;11.31;100.00;101883.72;4939342;29;20234;-76
2021/05/29 07:08:32;;;;;;;7.13;4.63;;;;;;;11.00;100.00;101879.91;4960227;28;20250;-75
2021/05/29 07:10:59;;;;;;;6.03;4.47;;;;;;;11.07;100.00;101877.88;4943317;29;20301;-76
2021/05/29 07:13:25;;;;;;;4.80;4.30;;;;;;;11.21;100.00;101888.19;4952693;29;20191;-75
2021/05/29 07:15:51;;;;;;;6.07;4.13;;;;;;;11.22;100.00;101885.19;4959681;28;20225;-78
2021/05/29 07:18:24;;;;;;;5.67;4.77;;;;;;;11.21;100.00;101875.41;4945581;29;20215;-77
2021/05/29 07:20:52;;;;;;;7.47;4.40;;;;;;;11.30;100.00;101884.81;4949625;29;20688;-76
2021/05/29 07:23:18;;;;;;;5.30;3.87;;;;;;;11.45;100.00;101885.09;4943117;29;20198;-76
2021/05/29 07:25:46;;;;;;;6.17;4.00;;;;;;;11.45;100.00;101878.81;4942749;29;20231;-75
2021/05/29 07:28:12;;;;;;;5.90;3.80;;;;;;;11.35;100.00;101890.31;4945957;29;20183;-77
2021/05/29 07:30:37;;;;;;;5.43;4.10;;;;;;;11.59;100.00;101889.94;4944701;28;20221;-75
2021/05/29 07:33:09;;;;;;;5.40;3.97;;;;;;;11.38;100.00;101889.81;4928883;29;20641;-77
2021/05/29 07:35:41;;;;;;;6.50;4.00;;;;;;;11.40;100.00;101897.75;4942975;29;20235;-75
2021/05/29 07:38:07;;;;;;;5.77;4.30;;;;;;;11.41;100.00;101893.94;4944824;28;20215;-76
2021/05/29 07:40:37;;;;;;;6.07;3.90;;;;;;;11.27;100.00;101904.31;4957766;28;20227;-75
2021/05/29 07:43:05;;;;;;;4.50;3.80;;;;;;;11.64;100.00;101900.06;4922962;29;20192;-75
2021/05/29 07:45:31;;;;;;;5.43;4.40;;;;;;;11.52;100.00;101902.06;4943641;29;20230;-76
2021/05/29 07:47:59;;;;;;;4.83;4.00;;;;;;;11.40;100.00;101903.19;4963377;29;20547;-76
2021/05/29 07:50:26;;;;;;;6.57;4.00;;;;;;;11.53;100.00;101903.72;4962045;28;20198;-76
2021/05/29 07:52:52;;;;;;;5.63;4.00;;;;;;;11.54;100.00;101910.81;4945165;29;20187;-76
2021/05/29 07:55:17;;;;;;;6.03;3.60;;;;;;;11.64;100.00;101905.50;4976465;28;20626;-76
2021/05/29 07:57:44;;;;;;;5.97;4.00;;;;;;;11.57;100.00;101911.16;4945565;29;20226;-75
2021/05/29 08:00:12;;;;;;;6.93;4.50;;;;;;;11.54;100.00;101916.25;4945893;29;20242;-76
2021/05/29 08:02:40;;;;;;;6.33;4.10;;;;;;;11.48;100.00;101924.56;4929126;29;20359;-75
2021/05/29 08:05:16;;;;;;;6.70;4.13;;;;;;;11.63;100.00;101915.59;4943854;28;20238;-76
2021/05/29 08:07:43;;;;;;;6.63;3.60;;;;;;;12.02;100.00;101915.34;4973258;28;20187;-75
2021/05/29 08:10:09;;;;;;;5.10;3.90;;;;;;;12.10;100.00;101925.81;4942318;28;20697;-75
2021/05/29 08:12:34;;;;;;;5.60;4.10;;;;;;;12.12;100.00;101920.13;4942651;29;20187;-75
2021/05/29 08:15:06;;;;;;;5.43;4.07;;;;;;;11.93;100.00;101911.41;4970015;28;20209;-75
2021/05/29 08:17:31;;;;;;;4.73;3.83;;;;;;;11.92;100.00;101920.66;4952674;29;20261;-75
2021/05/29 08:19:59;;;;;;;5.07;3.43;;;;;;;12.30;100.00;101923.38;4936348;29;20209;-76
2021/05/29 08:22:25;;;;;;;7.57;3.87;;;;;;;12.27;100.00;101923.91;4940684;29;20697;-75
2021/05/29 08:24:53;;;;;;;6.47;4.23;;;;;;;12.14;100.00;101924.25;4955909;28;20187;-77
2021/05/29 08:27:20;;;;;;;7.60;4.10;;;;;;;12.34;100.00;101928.06;4941252;29;20258;-76
2021/05/29 08:29:48;;;;;;;4.50;3.77;;;;;;;12.29;100.00;101921.75;4940025;29;20191;-75
2021/05/29 08:32:17;;;;;;;4.83;3.90;;;;;;;12.18;100.00;101930.84;4937831;28;20697;-75
2021/05/29 08:34:47;;;;;;;5.77;3.87;;;;;;;12.10;100.00;101928.53;4940221;28;20194;-76
2021/05/29 08:37:16;;;;;;;5.70;4.20;;;;;;;12.37;100.00;101932.19;4956134;29;20239;-75
2021/05/29 08:39:42;;;;;;;5.57;3.90;;;;;;;12.30;100.00;101917.91;4936993;29;20264;-75
2021/05/29 08:42:08;;;;;;;4.53;3.70;;;;;;;12.13;100.00;101917.16;4935736;29;20219;-75
2021/05/29 08:44:36;;;;;;;4.47;3.67;;;;;;;12.48;100.00;101928.53;4923484;29;20572;-75
2021/05/29 08:47:02;;;;;;;5.47;4.10;;;;;;;12.60;100.00;101929.19;4963271;28;20223;-76
2021/05/29 08:49:29;;;;;;;4.70;3.80;;;;;;;12.39;100.00;101919.13;4953886;29;20662;-77
2021/05/29 08:52:01;;;;;;;7.80;6.37;;;;;;;12.86;100.00;101926.56;4978272;28;20226;-77
2021/05/29 08:54:32;;;;;;;7.50;3.63;;;;;;;13.12;99.07;101923.84;4961016;29;20598;-76
2021/05/29 08:57:00;;;;;;;5.30;3.73;;;;;;;13.30;95.77;101937.94;4960204;28;20234;-77
2021/05/29 08:59:26;;;;;;;4.30;3.80;;;;;;;13.03;94.75;101919.09;4959651;29;20195;-77
2021/05/29 09:01:55;;;;;;;5.00;3.60;;;;;;;12.63;96.80;101934.97;4937928;29;20219;-75
2021/05/29 09:04:20;;;;;;;4.30;3.70;;;;;;;12.77;94.82;101928.06;4958375;29;20188;-77
2021/05/29 09:06:52;;;;;;;5.23;3.50;;;;;;;12.55;96.82;101942.78;4947789;29;20234;-76
2021/05/29 09:09:20;;;;;;;5.77;3.67;;;;;;;12.66;97.62;101941.84;4949773;29;20191;-76
2021/05/29 09:11:51;;;;;;;6.83;4.00;;;;;;;12.83;97.57;101949.69;4963402;29;20218;-77
2021/05/29 09:14:31;;;;;;;5.13;4.03;;;;;;;13.06;96.70;101943.13;4965189;29;20198;-77
2021/05/29 09:17:04;;;;;;;5.37;3.73;;;;;;;13.04;95.21;101948.84;4965145;28;20247;-78
2021/05/29 09:19:49;;;;;;;6.57;3.97;;;;;;;13.19;93.55;101955.28;4981206;28;20270;-77
2021/05/29 09:22:17;;;;;;;5.07;3.40;;;;;;;13.04;93.08;101946.13;4941170;29;20230;-77
2021/05/29 09:25:04;;;;;;;4.50;3.10;;;;;;;13.48;91.68;101943.84;4962403;28;20234;-76
2021/05/29 09:27:34;;;;;;;6.20;3.40;;;;;;;13.45;91.09;101958.00;4941168;29;20222;-76
2021/05/29 09:30:08;;;;;;;4.33;3.10;;;;;;;13.23;89.93;101952.88;4959997;28;20715;-76
2021/05/29 09:32:35;;;;;;;4.73;3.20;;;;;;;13.09;91.37;101951.63;4959846;29;20189;-75
2021/05/29 09:35:06;;;;;;;4.33;3.00;;;;;;;13.31;91.63;101955.13;4960637;28;20281;-75
2021/05/29 09:37:35;;;;;;;3.63;3.13;;;;;;;13.24;92.69;101962.69;4953706;28;20294;-74
2021/05/29 09:40:12;;;;;;;4.30;3.27;;;;;;;13.88;88.96;101957.78;4936935;29;20193;-74
2021/05/29 09:42:39;;;;;;;4.93;2.73;;;;;;;13.91;87.24;101965.47;4952345;28;20285;-78
2021/05/29 09:45:25;;;;;;;4.47;3.23;;;;;;;13.68;88.55;101960.41;4955748;28;20222;-78
2021/05/29 09:48:17;;;;;;;5.30;3.60;;;;;;;13.73;84.65;101965.88;4952102;28;20270;-75
2021/05/29 09:51:09;;;;;;;3.67;2.93;;;;;;;13.45;86.18;101963.44;4961679;28;20281;-78
2021/05/29 09:53:40;;;;;;;4.70;3.07;;;;;;;13.30;87.78;101959.75;4964094;28;20190;-78
2021/05/29 09:56:23;;;;;;;4.00;3.03;;;;;;;13.47;88.11;101950.34;4969062;28;20724;-77
2021/05/29 09:58:53;;;;;;;4.77;3.10;;;;;;;13.50;88.09;101958.03;4955536;28;20224;-77
2021/05/29 10:01:35;;;;;;;4.93;2.80;;;;;;;13.96;85.06;101957.34;4972076;28;20253;-76
2021/05/29 10:04:01;;;;;;;4.23;2.80;;;;;;;14.11;85.46;101962.94;4939397;29;20283;-78
2021/05/29 10:06:28;;;;;;;3.33;2.73;;;;;;;14.07;81.22;101961.81;4955081;28;20234;-78
2021/05/29 10:09:00;;;;;;;3.60;2.57;;;;;;;14.29;79.77;101958.66;4963296;28;20186;-79
2021/05/29 10:11:27;;;;;;;4.10;2.87;;;;;;;14.72;78.22;101955.59;4958422;29;20227;-78
2021/05/29 10:13:56;;;;;;;4.90;2.90;;;;;;;14.55;77.94;101960.44;4941408;29;20274;-76
2021/05/29 10:16:22;;;;;;;4.20;2.90;;;;;;;14.63;77.79;101968.97;4972585;28;20752;-79
2021/05/29 10:18:53;;;;;;;4.90;2.93;;;;;;;14.86;76.56;101965.78;4937553;29;20653;-78
2021/05/29 10:21:21;;;;;;;3.53;3.00;;;;;;;14.94;77.87;101969.91;4937800;29;20314;-77
2021/05/29 10:23:51;;;;;;;11.40;8.33;;;;;;;15.08;76.47;101958.19;4924591;29;20211;-77
2021/05/29 10:26:19;;;;;;;3.90;3.00;;;;;;;15.16;74.25;101954.94;4941225;29;20233;-79
2021/05/29 10:28:47;;;;;;;6.10;3.67;;;;;;;15.53;72.35;101954.47;4944455;29;20199;-77
2021/05/29 10:31:13;;;;;;;3.90;3.00;;;;;;;15.57;71.69;101949.25;4957905;29;20231;-77
2021/05/29 10:33:45;;;;;;;3.83;3.37;;;;;;;15.95;68.95;101950.34;4942975;29;20197;-77
2021/05/29 10:36:38;;;;;;;3.23;2.63;;;;;;;15.56;69.35;101953.91;4958481;28;20286;-77
2021/05/29 10:39:05;;;;;;;4.70;3.20;;;;;;;15.56;70.13;101953.91;4960366;29;20198;-77
2021/05/29 10:41:50;;;;;;;3.77;2.90;;;;;;;16.08;68.18;101948.94;4937214;29;20239;-77
2021/05/29 10:44:34;;;;;;;5.80;3.33;;;;;;;16.48;65.44;101953.25;4970920;28;20189;-77
2021/05/29 10:47:13;;;;;;;4.22;2.83;;;;;;;15.75;65.00;101952.28;4952151;28;20243;-77
2021/05/29 10:49:49;;;;;;;4.07;2.67;;;;;;;16.51;65.16;101952.69;4945359;29;20282;-78
2021/05/29 10:52:30;;;;;;;4.97;2.90;;;;;;;16.56;66.53;101954.63;4959960;28;20349;-77
2021/05/29 10:55:11;;;;;;;5.18;3.00;;;;;;;16.98;63.50;101946.44;4962512;28;20194;-78
2021/05/29 10:57:58;;;;;;;4.85;2.83;;;;;;;17.12;63.05;101938.41;4975383;28;20238;-78
2021/05/29 11:00:36;;;;;;;3.80;2.80;;;;;;;16.77;67.83;101938.59;4959778;28;20186;-78
2021/05/29 11:03:28;;;;;;;3.92;2.90;;;;;;;16.55;63.74;101944.75;4958982;29;20183;-78
2021/05/29 11:05:59;;;;;;;3.30;2.63;;;;;;;16.40;66.15;101933.81;4960809;28;20235;-79
2021/05/29 11:08:50;;;;;;;3.60;2.70;;;;;;;16.38;65.08;101936.84;4960157;29;20201;-78
2021/05/29 11:14:17;;;;;;;3.47;3.00;;;;;;;16.42;66.77;101948.06;4954361;29;20716;-78
2021/05/29 11:16:47;;;;;;;2.90;2.55;;;;;;;17.14;63.07;101941.69;4961027;28;20221;-78
2021/05/29 11:19:16;;;;;;;4.78;2.70;;;;;;;17.77;61.80;101936.84;4966211;28;20194;-76
2021/05/29 11:22:10;;;;;;;3.22;2.50;;;;;;;17.62;59.23;101939.72;4959618;28;20299;-78
2021/05/29 11:24:41;;;;;;;5.57;2.70;;;;;;;17.02;62.83;101943.97;4956772;29;20286;-78
2021/05/29 11:27:21;;;;;;;4.00;2.35;;;;;;;17.30;62.50;101946.84;4973059;28;20651;-79
2021/05/29 11:30:00;;;;;;;3.47;2.70;;;;;;;16.76;63.50;101947.94;4958106;29;20189;-77
2021/05/29 11:35:31;;;;;;;3.60;2.28;;;;;;;17.73;62.37;101935.78;4958184;28;20206;-78
2021/05/29 11:38:00;;;;;;;3.25;2.78;;;;;;;17.20;60.35;101946.09;4958898;29;20205;-78
2021/05/29 11:40:50;;;;;;;4.53;2.80;;;;;;;16.32;66.06;101943.44;4957906;28;20183;-78
2021/05/29 11:43:42;;;;;;;3.60;3.05;;;;;;;15.69;70.02;101942.38;4958342;29;20194;-78
2021/05/29 11:46:27;;;;;;;3.63;3.20;;;;;;;15.94;69.97;101948.69;4951105;28;20739;-78